Time;durP1;ratioP1;P1;durP2;ratioP2;P2;SDS_P1;SDS_P2;PMS_P1;PMS_P2;Temp;Humidity;BMP_temperature;BMP_pressure;BME280_temperature;BME280_humidity;BME280_pressure;Samples;Min_cycle;Max_cycle;Signal;HPM_P1;HPM_P2
2022/03/28 00:00:42;;;;;;;15.48;7.97;;;;;;;0.85;100.00;93914.56;2086368;28;20200;-82
2022/03/28 00:01:43;;;;;;;14.98;8.73;;;;;;;0.83;100.00;93919.38;2089007;28;20033;-83
2022/03/28 00:02:44;;;;;;;17.67;8.52;;;;;;;0.88;100.00;93915.75;2098426;28;20031;-83
2022/03/28 00:03:46;;;;;;;12.55;7.95;;;;;;;0.86;100.00;93913.47;2103236;28;20058;-82
2022/03/28 00:04:46;;;;;;;12.23;7.40;;;;;;;0.89;100.00;93909.41;2100385;28;20025;-82
2022/03/28 00:05:47;;;;;;;13.63;8.20;;;;;;;0.75;100.00;93920.31;2091748;28;20024;-82
2022/03/28 00:06:48;;;;;;;14.27;8.15;;;;;;;0.81;100.00;93908.44;2091313;28;20052;-83
2022/03/28 00:07:50;;;;;;;16.08;7.95;;;;;;;0.72;100.00;93920.97;2091360;28;20032;-83
2022/03/28 00:08:51;;;;;;;14.20;8.07;;;;;;;0.79;100.00;93910.66;2092682;28;20027;-81
2022/03/28 00:09:52;;;;;;;15.95;8.57;;;;;;;0.79;100.00;93908.03;2093219;28;20469;-83
2022/03/28 00:10:54;;;;;;;19.23;8.63;;;;;;;0.78;100.00;93914.38;2094804;28;20016;-82
2022/03/28 00:11:55;;;;;;;12.93;7.68;;;;;;;0.73;100.00;93904.84;2088379;28;20048;-82
2022/03/28 00:12:56;;;;;;;14.20;9.10;;;;;;;0.76;100.00;93900.78;2099005;28;20021;-83
2022/03/28 00:13:57;;;;;;;13.05;8.25;;;;;;;0.76;100.00;93895.53;2108529;28;20484;-83
2022/03/28 00:14:58;;;;;;;12.90;7.90;;;;;;;0.87;100.00;93896.56;2102036;28;20024;-83
2022/03/28 00:15:59;;;;;;;20.33;8.20;;;;;;;0.79;100.00;93894.09;2102297;28;20404;-83
2022/03/28 00:17:01;;;;;;;11.20;7.38;;;;;;;0.78;100.00;93900.44;2090894;28;20029;-82
2022/03/28 00:18:02;;;;;;;12.50;8.60;;;;;;;0.82;100.00;93898.69;2088652;28;20028;-84
2022/03/28 00:19:03;;;;;;;13.25;8.02;;;;;;;0.79;100.00;93894.88;2094317;28;20431;-84
2022/03/28 00:20:06;;;;;;;14.27;7.90;;;;;;;0.80;100.00;93901.66;2095081;28;20032;-81
2022/03/28 00:21:08;;;;;;;12.57;7.82;;;;;;;0.80;100.00;93898.25;2091518;28;20102;-83
2022/03/28 00:22:09;;;;;;;15.55;7.88;;;;;;;0.79;100.00;93892.25;2097835;28;20043;-82
2022/03/28 00:23:10;;;;;;;12.52;8.30;;;;;;;0.77;100.00;93891.78;2092428;28;20387;-82
2022/03/28 00:24:11;;;;;;;15.95;7.80;;;;;;;0.87;100.00;93893.94;2100908;28;20016;-82
2022/03/28 00:25:12;;;;;;;12.98;7.90;;;;;;;0.75;100.00;93891.38;2093970;28;20552;-83
2022/03/28 00:26:13;;;;;;;13.73;8.05;;;;;;;0.74;100.00;93893.22;2095531;28;20020;-83
2022/03/28 00:27:14;;;;;;;15.45;8.48;;;;;;;0.67;100.00;93889.63;2092501;28;20017;-82
2022/03/28 00:28:15;;;;;;;13.13;7.72;;;;;;;0.65;100.00;93892.59;2099397;28;20036;-82
2022/03/28 00:29:16;;;;;;;13.25;7.75;;;;;;;0.62;100.00;93887.25;2091098;28;20017;-82
2022/03/28 00:30:17;;;;;;;16.92;8.32;;;;;;;0.61;100.00;93896.22;2101622;28;20591;-83
2022/03/28 00:31:18;;;;;;;12.70;8.07;;;;;;;0.59;100.00;93890.53;2111425;28;20036;-82
2022/03/28 00:32:19;;;;;;;13.70;8.00;;;;;;;0.65;100.00;93883.94;2099527;28;20028;-83
2022/03/28 00:33:20;;;;;;;14.18;7.72;;;;;;;0.61;100.00;93880.44;2104977;28;20130;-83
2022/03/28 00:34:23;;;;;;;12.15;7.47;;;;;;;0.45;100.00;93888.28;2106360;28;20023;-82
2022/03/28 00:35:24;;;;;;;15.48;8.23;;;;;;;0.58;100.00;93875.88;2111665;27;20072;-81
2022/03/28 00:36:25;;;;;;;15.48;9.00;;;;;;;0.56;100.00;93885.94;2103744;28;20028;-82
2022/03/28 00:37:27;;;;;;;15.25;8.02;;;;;;;0.55;100.00;93876.53;2096735;28;20757;-83
2022/03/28 00:38:29;;;;;;;17.08;8.25;;;;;;;0.61;100.00;93880.44;2103271;27;20028;-83
2022/03/28 00:39:30;;;;;;;12.50;8.50;;;;;;;0.57;100.00;93877.72;2106782;28;20027;-83
2022/03/28 00:40:32;;;;;;;13.63;8.10;;;;;;;0.54;100.00;93880.25;2100644;28;20038;-82
2022/03/28 00:41:33;;;;;;;12.43;7.75;;;;;;;0.46;100.00;93881.91;2102256;28;20021;-83
2022/03/28 00:42:36;;;;;;;15.35;8.38;;;;;;;0.65;100.00;93879.44;2096698;28;20497;-81
2022/03/28 00:43:53;;;;;;;15.77;8.55;;;;;;;0.49;100.00;93883.88;2104097;28;20020;-83
2022/03/28 00:44:54;;;;;;;13.07;7.95;;;;;;;0.52;100.00;93882.44;2097610;28;20021;-82
2022/03/28 00:45:55;;;;;;;12.85;8.48;;;;;;;0.46;100.00;93881.91;2097611;28;20505;-82
2022/03/28 00:46:56;;;;;;;11.55;7.65;;;;;;;0.54;100.00;93882.88;2094873;28;20025;-82
2022/03/28 00:47:58;;;;;;;14.10;8.35;;;;;;;0.36;100.00;93883.16;2090744;28;20054;-82
2022/03/28 00:48:59;;;;;;;12.73;8.27;;;;;;;0.38;100.00;93874.91;2105708;28;20110;-83
2022/03/28 00:50:00;;;;;;;13.45;8.07;;;;;;;0.19;100.00;93875.50;2108622;28;20412;-82
2022/03/28 00:51:01;;;;;;;19.23;8.25;;;;;;;0.25;100.00;93882.81;2107668;27;20027;-82
2022/03/28 00:52:03;;;;;;;15.95;8.25;;;;;;;0.34;100.00;93877.44;2121139;27;20523;-83
2022/03/28 00:53:09;;;;;;;13.35;8.02;;;;;;;0.36;100.00;93879.75;2111258;28;20032;-82
2022/03/28 00:54:10;;;;;;;11.73;7.50;;;;;;;0.35;100.00;93871.09;2110745;28;20118;-82
2022/03/28 00:55:12;;;;;;;15.00;9.10;;;;;;;0.22;100.00;93875.63;2106259;28;20055;-84
2022/03/28 00:56:14;;;;;;;12.75;7.53;;;;;;;0.25;100.00;93882.06;2091951;28;20020;-82
2022/03/28 00:57:15;;;;;;;13.52;8.45;;;;;;;0.35;100.00;93881.63;2098765;28;20071;-84
2022/03/28 00:58:17;;;;;;;15.43;8.43;;;;;;;0.33;100.00;93875.91;2102056;28;20539;-84
2022/03/28 00:59:18;;;;;;;13.48;8.30;;;;;;;0.48;100.00;93882.31;2089801;28;20391;-84
2022/03/28 01:00:19;;;;;;;15.05;8.05;;;;;;;0.42;100.00;93875.78;2098142;28;20470;-85
2022/03/28 01:01:20;;;;;;;18.38;8.65;;;;;;;0.36;100.00;93877.88;2089024;28;20028;-82
2022/03/28 01:02:21;;;;;;;16.35;8.75;;;;;;;0.39;100.00;93874.56;2089328;28;20029;-82
2022/03/28 01:03:22;;;;;;;14.73;8.23;;;;;;;0.33;100.00;93877.78;2093470;28;20032;-83
2022/03/28 01:04:23;;;;;;;14.00;7.68;;;;;;;0.24;100.00;93880.53;2089525;28;20733;-82
2022/03/28 01:05:26;;;;;;;15.85;8.10;;;;;;;0.30;100.00;93873.94;2093978;28;20044;-82
2022/03/28 01:06:27;;;;;;;16.45;8.68;;;;;;;0.41;100.00;93877.66;2090449;28;20631;-83
2022/03/28 01:07:28;;;;;;;12.65;8.13;;;;;;;0.28;100.00;93870.88;2100519;28;20052;-82
2022/03/28 01:08:31;;;;;;;15.73;7.57;;;;;;;0.30;100.00;93876.56;2097654;28;20090;-83
2022/03/28 01:09:33;;;;;;;13.82;7.93;;;;;;;0.35;100.00;93873.72;2092680;28;20048;-82
2022/03/28 01:10:34;;;;;;;17.05;8.70;;;;;;;0.17;100.00;93873.19;2094276;28;20790;-82
2022/03/28 01:11:36;;;;;;;15.38;7.90;;;;;;;0.27;100.00;93872.00;2089185;28;20033;-82
2022/03/28 01:12:42;;;;;;;14.23;8.45;;;;;;;0.05;100.00;93878.47;2089758;28;20104;-83
2022/03/28 01:13:44;;;;;;;15.95;9.02;;;;;;;0.16;100.00;93871.66;2098683;28;20519;-82
2022/03/28 01:14:47;;;;;;;12.25;8.65;;;;;;;0.22;100.00;93872.19;2090615;28;20028;-82
2022/03/28 01:15:47;;;;;;;14.65;7.75;;;;;;;0.20;100.00;93864.66;2099774;28;20028;-84
2022/03/28 01:18:11;;;;;;;14.85;8.02;;;;;;;0.10;100.00;93867.72;2108651;28;20020;-82
2022/03/28 01:19:12;;;;;;;13.30;8.27;;;;;;;0.14;100.00;93863.34;2101652;28;20098;-83
2022/03/28 01:20:14;;;;;;;14.93;8.60;;;;;;;0.15;100.00;93870.13;2105234;28;20381;-81
2022/03/28 01:21:17;;;;;;;14.63;8.48;;;;;;;0.16;100.00;93860.38;2101916;28;20027;-83
2022/03/28 01:22:18;;;;;;;15.65;8.45;;;;;;;0.27;100.00;93861.47;2098362;28;20572;-82
2022/03/28 01:23:19;;;;;;;16.50;9.13;;;;;;;0.36;100.00;93858.72;2089855;28;20021;-83
2022/03/28 01:24:20;;;;;;;14.02;7.32;;;;;;;0.35;100.00;93855.31;2100017;28;20052;-81
2022/03/28 01:25:23;;;;;;;15.80;8.38;;;;;;;0.38;100.00;93851.25;2097815;28;20093;-82
2022/03/28 01:26:25;;;;;;;12.98;8.48;;;;;;;0.29;100.00;93856.63;2094021;28;20024;-84
2022/03/28 01:27:26;;;;;;;14.35;8.27;;;;;;;0.31;100.00;93848.41;2099737;28;20053;-83
2022/03/28 01:28:27;;;;;;;16.48;8.82;;;;;;;0.23;100.00;93853.47;2091541;28;20021;-81
2022/03/28 01:29:28;;;;;;;15.30;8.48;;;;;;;0.27;100.00;93852.81;2087906;28;20096;-83
2022/03/28 01:30:32;;;;;;;12.55;8.02;;;;;;;0.18;100.00;93851.06;2102172;28;20024;-83
2022/03/28 01:31:38;;;;;;;14.57;8.52;;;;;;;0.10;100.00;93848.56;2108376;28;20031;-83
2022/03/28 01:32:39;;;;;;;13.82;8.18;;;;;;;0.19;100.00;93846.59;2092649;28;20024;-82
2022/03/28 01:33:39;;;;;;;13.52;8.18;;;;;;;0.16;100.00;93848.00;2094843;28;20405;-81
2022/03/28 01:34:40;;;;;;;16.13;9.25;;;;;;;0.16;100.00;93848.00;2098171;28;20012;-84
2022/03/28 01:35:43;;;;;;;12.80;8.45;;;;;;;0.14;100.00;93839.69;2100435;28;20028;-82
2022/03/28 01:36:47;;;;;;;13.82;9.23;;;;;;;0.13;100.00;93845.25;2100886;28;20081;-84
2022/03/28 01:37:47;;;;;;;16.30;8.70;;;;;;;0.17;100.00;93844.28;2102760;28;20419;-84
2022/03/28 01:38:48;;;;;;;14.10;8.45;;;;;;;0.18;100.00;93840.56;2089457;28;20036;-81
2022/03/28 01:40:04;;;;;;;19.00;9.30;;;;;;;0.07;100.00;93847.34;2106798;28;20061;-82
2022/03/28 01:41:05;;;;;;;16.92;7.85;;;;;;;0.17;100.00;93840.88;2099119;28;20028;-83
2022/03/28 01:42:06;;;;;;;13.25;7.25;;;;;;;0.13;100.00;93842.63;2089194;28;20033;-81
2022/03/28 01:43:08;;;;;;;12.57;8.13;;;;;;;0.02;100.00;93849.47;2091874;28;20043;-83
2022/03/28 01:44:09;;;;;;;13.55;8.30;;;;;;;0.06;100.00;93835.31;2096050;28;20408;-82
2022/03/28 01:45:11;;;;;;;15.90;8.65;;;;;;;-0.03;100.00;93839.94;2089097;28;20070;-82
2022/03/28 01:46:12;;;;;;;15.70;8.10;;;;;;;0.03;100.00;93835.22;2086858;28;20397;-83
2022/03/28 01:47:13;;;;;;;14.05;8.85;;;;;;;-0.01;100.00;93843.00;2096562;28;20024;-82
2022/03/28 01:48:14;;;;;;;14.95;8.27;;;;;;;-0.09;100.00;93839.41;2091846;28;20021;-83
2022/03/28 01:49:17;;;;;;;13.13;8.30;;;;;;;-0.08;100.00;93838.31;2087476;28;20025;-82
2022/03/28 01:50:18;;;;;;;13.65;8.13;;;;;;;-0.10;100.00;93842.34;2097666;28;20032;-82
2022/03/28 01:51:19;;;;;;;16.45;9.27;;;;;;;-0.13;100.00;93841.16;2101596;28;20046;-83
2022/03/28 01:52:20;;;;;;;15.48;8.50;;;;;;;-0.13;100.00;93835.91;2089285;28;20470;-85
2022/03/28 01:53:21;;;;;;;17.85;8.82;;;;;;;-0.14;100.00;93830.97;2097386;28;20020;-84
2022/03/28 01:54:22;;;;;;;17.80;8.35;;;;;;;-0.19;100.00;93837.19;2110302;28;20572;-82
2022/03/28 01:55:25;;;;;;;17.15;8.13;;;;;;;-0.13;100.00;93840.38;2109363;28;20357;-82
2022/03/28 01:56:28;;;;;;;16.17;8.80;;;;;;;-0.13;100.00;93832.47;2109195;28;20050;-82
2022/03/28 01:57:29;;;;;;;14.48;8.85;;;;;;;-0.11;100.00;93833.69;2102081;28;20028;-82
2022/03/28 01:58:29;;;;;;;13.13;8.90;;;;;;;-0.17;100.00;93829.00;2098316;28;20020;-83
2022/03/28 01:59:30;;;;;;;14.65;8.55;;;;;;;-0.23;100.00;93831.06;2092434;28;20032;-82
2022/03/28 02:00:32;;;;;;;17.95;8.63;;;;;;;-0.22;100.00;93827.38;2099606;28;20023;-83
2022/03/28 02:01:34;;;;;;;18.00;8.60;;;;;;;-0.14;100.00;93826.47;2098848;28;20039;-82
2022/03/28 02:02:36;;;;;;;13.95;8.80;;;;;;;-0.12;100.00;93832.16;2101768;28;20500;-82
2022/03/28 02:03:36;;;;;;;13.00;8.57;;;;;;;-0.19;100.00;93831.19;2093120;28;20028;-84
2022/03/28 02:04:37;;;;;;;14.38;8.45;;;;;;;-0.27;100.00;93833.59;2099314;28;20032;-83
2022/03/28 02:05:38;;;;;;;15.93;9.40;;;;;;;-0.30;100.00;93828.25;2101404;28;20095;-85
2022/03/28 02:06:39;;;;;;;13.27;8.55;;;;;;;-0.23;100.00;93825.06;2105606;28;20020;-82
2022/03/28 02:07:43;;;;;;;18.45;9.25;;;;;;;-0.19;100.00;93831.94;2101247;28;20476;-83
2022/03/28 02:08:44;;;;;;;18.65;9.23;;;;;;;-0.20;100.00;93830.41;2111805;27;20031;-82
2022/03/28 02:09:46;;;;;;;13.25;9.25;;;;;;;-0.24;100.00;93829.53;2107743;28;20028;-83
2022/03/28 02:12:17;;;;;;;17.20;8.88;;;;;;;-0.17;100.00;93829.78;2130769;27;20643;-84
2022/03/28 02:13:18;;;;;;;16.35;9.45;;;;;;;-0.23;100.00;93823.19;2121269;28;20062;-82
2022/03/28 02:14:19;;;;;;;15.82;9.73;;;;;;;-0.22;100.00;93823.97;2104773;28;20028;-84
2022/03/28 02:15:21;;;;;;;14.35;9.38;;;;;;;-0.26;100.00;93826.50;2109217;28;20020;-82
2022/03/28 02:16:23;;;;;;;14.13;9.25;;;;;;;-0.21;100.00;93826.28;2104762;28;20021;-82
2022/03/28 02:17:24;;;;;;;15.63;9.52;;;;;;;-0.27;100.00;93819.69;2113150;27;20135;-83
2022/03/28 02:18:25;;;;;;;19.20;9.60;;;;;;;-0.21;100.00;93815.00;2112995;28;20141;-83
2022/03/28 02:19:26;;;;;;;16.13;9.73;;;;;;;-0.23;100.00;93820.56;2099891;28;20025;-82
2022/03/28 02:20:27;;;;;;;18.30;9.63;;;;;;;-0.29;100.00;93817.41;2097413;28;20056;-82
2022/03/28 02:21:29;;;;;;;19.58;10.85;;;;;;;-0.22;100.00;93822.13;2110321;28;20054;-82
2022/03/28 02:22:30;;;;;;;17.17;9.30;;;;;;;-0.22;100.00;93819.50;2110585;28;20111;-82
2022/03/28 02:23:31;;;;;;;14.27;9.52;;;;;;;-0.24;100.00;93819.03;2107192;28;20025;-84
2022/03/28 02:24:32;;;;;;;21.83;9.88;;;;;;;-0.33;100.00;93815.78;2104223;28;20024;-84
2022/03/28 02:25:37;;;;;;;14.00;8.93;;;;;;;-0.29;100.00;93814.00;2110243;27;20024;-82
2022/03/28 02:26:38;;;;;;;15.95;8.95;;;;;;;-0.24;100.00;93816.41;2121073;28;20092;-81
2022/03/28 02:27:39;;;;;;;18.23;9.90;;;;;;;-0.29;100.00;93811.38;2104995;28;20055;-83
2022/03/28 02:28:40;;;;;;;15.05;9.65;;;;;;;-0.28;100.00;93816.31;2098264;28;20028;-83
2022/03/28 02:29:41;;;;;;;13.63;9.20;;;;;;;-0.30;100.00;93812.50;2104621;28;20025;-84
2022/03/28 02:30:45;;;;;;;18.75;9.88;;;;;;;-0.27;100.00;93815.19;2118463;28;20591;-83
2022/03/28 02:31:46;;;;;;;17.83;9.18;;;;;;;-0.37;100.00;93815.66;2109340;28;20082;-83
2022/03/28 02:32:47;;;;;;;19.80;10.65;;;;;;;-0.41;100.00;93812.16;2103589;28;20056;-83
2022/03/28 02:33:48;;;;;;;19.08;10.20;;;;;;;-0.32;100.00;93807.53;2104492;28;20028;-83
2022/03/28 02:34:49;;;;;;;15.45;9.50;;;;;;;-0.34;100.00;93814.25;2119352;27;20047;-83
2022/03/28 02:35:51;;;;;;;13.70;9.35;;;;;;;-0.37;100.00;93809.63;2122837;27;20070;-84
2022/03/28 02:36:52;;;;;;;18.65;10.27;;;;;;;-0.41;100.00;93812.16;2109670;28;20138;-83
2022/03/28 02:37:53;;;;;;;17.48;10.52;;;;;;;-0.46;100.00;93809.75;2104613;28;20461;-84
2022/03/28 02:38:54;;;;;;;15.32;9.38;;;;;;;-0.40;100.00;93811.06;2104347;28;20090;-84
2022/03/28 02:39:55;;;;;;;16.05;10.27;;;;;;;-0.42;100.00;93810.63;2111162;28;20111;-82
2022/03/28 02:40:56;;;;;;;16.52;9.00;;;;;;;-0.41;100.00;93812.16;2108975;28;20020;-82
2022/03/28 02:42:02;;;;;;;14.77;8.75;;;;;;;-0.39;100.00;93807.34;2112930;28;20044;-83
2022/03/28 02:43:03;;;;;;;14.98;9.70;;;;;;;-0.37;100.00;93802.53;2101310;28;20028;-83
2022/03/28 02:44:04;;;;;;;16.40;10.05;;;;;;;-0.45;100.00;93795.50;2104618;28;20473;-82
2022/03/28 02:45:06;;;;;;;18.45;9.23;;;;;;;-0.45;100.00;93797.38;2104511;28;20027;-82
2022/03/28 02:46:07;;;;;;;17.55;10.18;;;;;;;-0.41;100.00;93804.28;2106194;28;20027;-83
2022/03/28 02:47:08;;;;;;;18.60;9.52;;;;;;;-0.37;100.00;93807.78;2106096;28;20024;-83
2022/03/28 02:48:09;;;;;;;16.73;9.48;;;;;;;-0.41;100.00;93804.28;2102557;28;20024;-82
2022/03/28 02:49:10;;;;;;;17.25;10.32;;;;;;;-0.46;100.00;93796.63;2104235;28;20023;-82
2022/03/28 02:50:11;;;;;;;14.13;9.13;;;;;;;-0.56;100.00;93800.47;2106809;28;20468;-83
2022/03/28 02:51:12;;;;;;;17.25;10.15;;;;;;;-0.55;100.00;93799.34;2116717;28;20100;-83
2022/03/28 02:52:13;;;;;;;14.95;9.25;;;;;;;-0.51;100.00;93792.34;2104334;28;20025;-83
2022/03/28 02:53:14;;;;;;;18.80;10.52;;;;;;;-0.45;100.00;93792.88;2104300;28;20020;-83
2022/03/28 02:54:15;;;;;;;17.42;10.68;;;;;;;-0.46;100.00;93795.84;2110658;27;20847;-81
2022/03/28 02:55:17;;;;;;;18.77;10.25;;;;;;;-0.46;100.00;93799.25;2121242;28;20034;-83
2022/03/28 02:56:18;;;;;;;22.00;9.95;;;;;;;-0.45;100.00;93792.88;2103494;28;20458;-82
2022/03/28 02:57:19;;;;;;;15.38;9.93;;;;;;;-0.48;100.00;93785.69;2102110;28;20017;-82
2022/03/28 02:58:20;;;;;;;16.73;9.85;;;;;;;-0.51;100.00;93794.22;2103888;28;20389;-83
2022/03/28 02:59:20;;;;;;;15.55;10.15;;;;;;;-0.48;100.00;93790.16;2100851;28;20028;-82
2022/03/28 03:00:21;;;;;;;19.02;9.98;;;;;;;-0.51;100.00;93789.72;2117058;27;20047;-82
2022/03/28 03:01:22;;;;;;;23.65;11.65;;;;;;;-0.50;100.00;93790.50;2110380;28;20108;-83
2022/03/28 03:02:26;;;;;;;17.50;10.52;;;;;;;-0.47;100.00;93786.44;2104085;28;20408;-81
2022/03/28 03:03:26;;;;;;;16.48;8.98;;;;;;;-0.33;100.00;93782.38;2104654;28;20111;-82
2022/03/28 03:04:28;;;;;;;15.43;10.38;;;;;;;-0.37;100.00;93778.88;2103649;28;20024;-83
2022/03/28 03:05:29;;;;;;;15.27;9.38;;;;;;;-0.30;100.00;93783.59;2104560;28;20051;-83
2022/03/28 03:06:36;;;;;;;16.35;9.10;;;;;;;-0.33;100.00;93779.00;2104010;28;20024;-81
2022/03/28 03:07:44;;;;;;;14.15;9.38;;;;;;;-0.28;100.00;93786.66;2102567;28;20441;-81
2022/03/28 03:08:51;;;;;;;18.33;10.93;;;;;;;-0.40;100.00;93781.41;2105165;28;20039;-82
2022/03/28 03:09:53;;;;;;;19.70;10.45;;;;;;;-0.41;100.00;93783.25;2097547;28;20485;-82
2022/03/28 03:10:54;;;;;;;16.38;9.77;;;;;;;-0.54;100.00;93781.75;2103642;28;20940;-83
2022/03/28 03:11:55;;;;;;;19.77;10.30;;;;;;;-0.48;100.00;93775.19;2107622;28;20053;-82
2022/03/28 03:12:56;;;;;;;17.42;9.95;;;;;;;-0.47;100.00;93778.56;2101912;28;20355;-82
2022/03/28 03:13:57;;;;;;;16.05;9.63;;;;;;;-0.49;100.00;93778.13;2095826;28;20035;-79
2022/03/28 03:14:58;;;;;;;15.05;10.30;;;;;;;-0.53;100.00;93780.63;2099622;28;20020;-80
2022/03/28 03:15:59;;;;;;;15.45;9.93;;;;;;;-0.57;100.00;93777.13;2089639;28;20043;-84
2022/03/28 03:17:01;;;;;;;18.42;11.35;;;;;;;-0.52;100.00;93779.56;2097760;28;20025;-80
2022/03/28 03:18:04;;;;;;;17.77;10.27;;;;;;;-0.53;100.00;93781.44;2107448;28;20031;-83
2022/03/28 03:19:05;;;;;;;19.52;10.63;;;;;;;-0.57;100.00;93774.50;2105340;28;20543;-81
2022/03/28 03:20:07;;;;;;;16.50;9.65;;;;;;;-0.52;100.00;93779.56;2104049;28;20032;-81
2022/03/28 03:21:09;;;;;;;15.15;9.68;;;;;;;-0.51;100.00;93773.22;2090991;28;20501;-82
2022/03/28 03:22:10;;;;;;;16.65;10.50;;;;;;;-0.46;100.00;93780.88;2095315;28;20017;-82
2022/03/28 03:23:11;;;;;;;16.85;10.02;;;;;;;-0.54;100.00;93779.13;2090408;28;20143;-81
2022/03/28 03:24:13;;;;;;;17.45;10.68;;;;;;;-0.50;100.00;93780.00;2096474;28;20492;-80
2022/03/28 03:25:14;;;;;;;17.30;10.23;;;;;;;-0.58;100.00;93778.25;2097813;28;20024;-83
2022/03/28 03:26:15;;;;;;;19.63;10.45;;;;;;;-0.52;100.00;93774.31;2098350;28;20020;-81
2022/03/28 03:27:16;;;;;;;20.20;10.48;;;;;;;-0.60;100.00;93778.56;2104144;28;20030;-82
2022/03/28 03:28:16;;;;;;;17.00;9.93;;;;;;;-0.66;100.00;93777.28;2109215;28;20099;-83
2022/03/28 03:29:18;;;;;;;16.08;10.15;;;;;;;-0.70;100.00;93773.78;2104823;28;20031;-80
2022/03/28 03:30:20;;;;;;;15.70;9.38;;;;;;;-0.67;100.00;93778.34;2096452;28;20512;-83
2022/03/28 03:31:21;;;;;;;16.10;9.75;;;;;;;-0.63;100.00;93781.09;2105579;28;20040;-82
2022/03/28 03:32:22;;;;;;;17.50;9.63;;;;;;;-0.59;100.00;93772.22;2107322;28;20413;-83
2022/03/28 03:33:24;;;;;;;15.23;9.95;;;;;;;-0.63;100.00;93776.59;2087514;28;20017;-82
2022/03/28 03:34:25;;;;;;;19.58;10.23;;;;;;;-0.62;100.00;93774.72;2090602;28;20021;-83
2022/03/28 03:35:26;;;;;;;18.10;9.95;;;;;;;-0.55;100.00;93774.97;2099352;28;20016;-81
2022/03/28 03:36:27;;;;;;;17.10;10.68;;;;;;;-0.58;100.00;93771.13;2098552;28;20032;-84
2022/03/28 03:37:28;;;;;;;18.58;10.73;;;;;;;-0.58;100.00;93771.13;2107430;28;20027;-81
2022/03/28 03:38:30;;;;;;;18.85;10.35;;;;;;;-0.59;100.00;93772.22;2094209;28;20090;-83
2022/03/28 03:39:31;;;;;;;16.65;10.52;;;;;;;-0.60;100.00;93769.94;2104827;28;20042;-84
2022/03/28 03:40:32;;;;;;;17.90;11.38;;;;;;;-0.61;100.00;93774.44;2088541;28;20071;-83
2022/03/28 03:41:33;;;;;;;23.38;10.57;;;;;;;-0.54;100.00;93777.25;2088600;28;20039;-81
2022/03/28 03:42:34;;;;;;;16.83;10.52;;;;;;;-0.60;100.00;93773.31;2089946;28;20027;-83
2022/03/28 03:43:35;;;;;;;16.13;10.23;;;;;;;-0.65;100.00;93781.41;2086330;28;20111;-84
2022/03/28 03:44:36;;;;;;;17.23;10.63;;;;;;;-0.64;100.00;93771.69;2093615;28;20090;-83
2022/03/28 03:45:37;;;;;;;19.65;10.90;;;;;;;-0.59;100.00;93768.84;2105748;28;20024;-83
2022/03/28 03:46:38;;;;;;;16.67;10.32;;;;;;;-0.58;100.00;93773.00;2100985;28;20465;-85
2022/03/28 03:47:39;;;;;;;15.82;9.65;;;;;;;-0.57;100.00;93779.75;2106793;28;20031;-83
2022/03/28 03:48:40;;;;;;;19.33;10.60;;;;;;;-0.61;100.00;93777.06;2096922;28;20067;-82
2022/03/28 03:49:41;;;;;;;16.98;10.27;;;;;;;-0.62;100.00;93775.50;2082083;28;20030;-83
2022/03/28 03:50:42;;;;;;;17.77;10.45;;;;;;;-0.62;100.00;93779.97;2094326;28;20058;-83
2022/03/28 03:51:43;;;;;;;18.02;11.05;;;;;;;-0.57;100.00;93772.69;2100616;28;20024;-81
2022/03/28 03:52:44;;;;;;;17.73;10.45;;;;;;;-0.54;100.00;93772.00;2105850;28;20031;-81
2022/03/28 03:53:55;;;;;;;20.52;10.80;;;;;;;-0.56;100.00;93774.19;2101024;28;20074;-81
2022/03/28 03:54:56;;;;;;;18.17;10.77;;;;;;;-0.56;100.00;93773.44;2099829;28;20062;-81
2022/03/28 03:55:59;;;;;;;16.90;10.65;;;;;;;-0.55;100.00;93769.72;2106550;28;20016;-81
2022/03/28 03:57:00;;;;;;;17.30;10.98;;;;;;;-0.58;100.00;93776.38;2092981;28;20067;-81
2022/03/28 03:58:01;;;;;;;16.65;10.25;;;;;;;-0.63;100.00;93770.59;2103373;28;20024;-81
2022/03/28 03:59:02;;;;;;;16.50;9.73;;;;;;;-0.67;100.00;93770.47;2091927;28;20027;-82
2022/03/28 04:00:04;;;;;;;13.88;10.20;;;;;;;-0.68;100.00;93773.44;2102737;28;20020;-83
2022/03/28 04:01:08;;;;;;;18.27;9.85;;;;;;;-0.70;100.00;93779.03;2106414;28;20065;-82
2022/03/28 04:02:09;;;;;;;21.20;10.63;;;;;;;-0.68;100.00;93776.81;2104807;28;20024;-82
2022/03/28 04:03:10;;;;;;;15.57;9.85;;;;;;;-0.69;100.00;93771.91;2095859;28;20027;-82
2022/03/28 04:04:12;;;;;;;16.75;9.82;;;;;;;-0.78;100.00;93774.63;2095824;28;20067;-82
2022/03/28 04:05:13;;;;;;;19.15;9.82;;;;;;;-0.65;100.00;93768.28;2093094;28;20029;-82
2022/03/28 04:06:15;;;;;;;15.35;9.48;;;;;;;-0.68;100.00;93768.94;2111140;28;20020;-83
2022/03/28 04:07:16;;;;;;;17.45;9.85;;;;;;;-0.76;100.00;93770.56;2108306;28;20020;-83
2022/03/28 04:08:17;;;;;;;18.95;10.15;;;;;;;-0.86;100.00;93765.78;2098302;28;20020;-83
2022/03/28 04:09:18;;;;;;;19.02;10.43;;;;;;;-0.82;100.00;93773.75;2097946;28;20032;-82
2022/03/28 04:10:19;;;;;;;19.45;10.52;;;;;;;-0.78;100.00;93769.38;2085281;28;20043;-82
2022/03/28 04:11:20;;;;;;;19.35;9.80;;;;;;;-0.76;100.00;93775.06;2091977;28;20023;-82
2022/03/28 04:12:21;;;;;;;19.60;11.02;;;;;;;-0.82;100.00;93769.28;2099877;28;20035;-81
2022/03/28 04:13:22;;;;;;;16.83;11.02;;;;;;;-0.86;100.00;93773.63;2096285;28;20498;-80
2022/03/28 04:14:29;;;;;;;22.42;11.77;;;;;;;-0.86;100.00;93770.25;2090186;28;20028;-81
2022/03/28 04:15:30;;;;;;;18.63;10.25;;;;;;;-0.91;100.00;93773.09;2103070;28;20032;-82
2022/03/28 04:16:31;;;;;;;18.08;10.70;;;;;;;-0.81;100.00;93770.78;2100849;28;20063;-82
2022/03/28 04:17:43;;;;;;;14.57;9.43;;;;;;;-0.81;100.00;93764.78;2098082;28;20031;-82
2022/03/28 04:18:44;;;;;;;23.38;11.13;;;;;;;-0.82;100.00;93766.66;2105805;28;20032;-83
2022/03/28 04:19:45;;;;;;;20.25;10.45;;;;;;;-0.78;100.00;93772.00;2106758;28;20020;-81
2022/03/28 04:20:46;;;;;;;19.02;10.52;;;;;;;-0.86;100.00;93776.25;2112727;28;20019;-82
2022/03/28 04:21:48;;;;;;;15.82;10.60;;;;;;;-0.83;100.00;93767.75;2114843;28;20025;-83
2022/03/28 04:22:51;;;;;;;16.15;10.27;;;;;;;-0.87;100.00;93768.72;2103729;28;20024;-82
2022/03/28 04:23:52;;;;;;;17.00;11.10;;;;;;;-0.82;100.00;93765.88;2098212;28;20089;-83
2022/03/28 04:24:53;;;;;;;21.85;10.48;;;;;;;-0.89;100.00;93761.16;2097820;28;20073;-83
2022/03/28 04:25:54;;;;;;;18.83;11.10;;;;;;;-0.91;100.00;93767.84;2097231;28;20028;-84
2022/03/28 04:26:55;;;;;;;17.23;11.45;;;;;;;-0.90;100.00;93759.63;2097941;28;20402;-83
2022/03/28 04:27:56;;;;;;;17.10;11.02;;;;;;;-0.99;100.00;93766.84;2086492;28;20087;-82
2022/03/28 04:28:57;;;;;;;18.88;10.13;;;;;;;-0.96;100.00;93770.69;2086154;28;20103;-85
2022/03/28 04:29:59;;;;;;;15.98;10.73;;;;;;;-0.90;100.00;93766.75;2098371;28;20028;-83
2022/03/28 04:31:18;;;;;;;20.55;11.55;;;;;;;-1.02;100.00;93760.38;2103728;28;20611;-82
2022/03/28 04:32:19;;;;;;;20.52;10.43;;;;;;;-0.98;100.00;93765.00;2088040;28;20125;-82
2022/03/28 04:33:20;;;;;;;17.98;11.63;;;;;;;-0.93;100.00;93757.66;2086210;28;20033;-82
2022/03/28 04:34:21;;;;;;;20.10;11.75;;;;;;;-0.86;100.00;93765.00;2087857;28;20044;-83
2022/03/28 04:35:22;;;;;;;18.73;10.98;;;;;;;-0.86;100.00;93765.00;2093424;28;20055;-82
2022/03/28 04:36:24;;;;;;;22.52;12.25;;;;;;;-1.00;100.00;93759.31;2100410;28;20032;-83
2022/03/28 04:37:25;;;;;;;24.48;13.88;;;;;;;-1.07;100.00;93759.84;2095428;28;20024;-84
2022/03/28 04:38:26;;;;;;;21.65;13.70;;;;;;;-1.06;100.00;93758.75;2091468;28;20040;-84
2022/03/28 04:39:27;;;;;;;22.67;13.98;;;;;;;-1.00;100.00;93757.47;2094941;28;20024;-82
2022/03/28 04:40:28;;;;;;;22.23;12.75;;;;;;;-1.06;100.00;93761.38;2093180;28;20024;-83
2022/03/28 04:41:29;;;;;;;29.25;12.68;;;;;;;-1.10;100.00;93757.84;2087787;28;20052;-82
2022/03/28 04:42:30;;;;;;;22.30;12.73;;;;;;;-1.00;100.00;93756.69;2092863;28;20079;-84
2022/03/28 04:43:31;;;;;;;20.13;12.75;;;;;;;-0.99;100.00;93752.97;2093675;28;20040;-82
2022/03/28 04:44:32;;;;;;;15.88;11.13;;;;;;;-0.99;100.00;93755.59;2092439;28;20533;-83
2022/03/28 04:45:34;;;;;;;19.60;12.23;;;;;;;-1.01;100.00;93758.53;2080085;28;20021;-83
2022/03/28 04:46:35;;;;;;;19.70;12.13;;;;;;;-1.02;100.00;93754.38;2092436;28;20544;-83